createdAt,value
2018-04-08T00:02:16.494Z,55.86
2018-04-08T00:04:43.925Z,55.77
2018-04-08T00:07:11.354Z,55.58
2018-04-08T00:09:38.792Z,55.59
2018-04-08T00:12:06.202Z,55.43
2018-04-08T00:14:33.621Z,55.18
2018-04-08T00:17:01.049Z,54.74
2018-04-08T00:19:28.455Z,54.45
2018-04-08T00:21:55.852Z,54.33
2018-04-08T00:24:29.492Z,54.27
2018-04-08T00:26:56.926Z,54.20
2018-04-08T00:29:24.394Z,54.32
2018-04-08T00:31:51.790Z,54.65
2018-04-08T00:34:19.238Z,54.47
2018-04-08T00:36:46.703Z,54.42
2018-04-08T00:39:14.139Z,54.32
2018-04-08T00:41:41.569Z,54.49
2018-04-08T00:44:09.034Z,54.81
2018-04-08T00:46:36.519Z,54.95
2018-04-08T00:49:03.919Z,54.91
2018-04-08T00:51:31.381Z,55.09
2018-04-08T00:54:13.726Z,55.24
2018-04-08T00:56:41.149Z,55.62
2018-04-08T00:59:08.575Z,55.63
2018-04-08T01:01:36.011Z,55.29
2018-04-08T01:04:03.476Z,54.98
2018-04-08T01:06:30.912Z,54.85
2018-04-08T01:08:58.342Z,55.34
2018-04-08T01:11:28.926Z,55.34
2018-04-08T01:13:56.365Z,55.30
2018-04-08T01:16:23.957Z,55.44
2018-04-08T01:18:51.389Z,55.12
2018-04-08T01:21:18.835Z,55.13
2018-04-08T01:23:46.329Z,55.60
2018-04-08T01:26:13.816Z,55.92
2018-04-08T01:28:41.284Z,56.21
2018-04-08T01:31:11.784Z,56.04
2018-04-08T01:33:39.209Z,56.54
2018-04-08T01:36:06.674Z,56.22
2018-04-08T01:38:34.702Z,55.81
2018-04-08T01:41:02.174Z,55.83
2018-04-08T01:43:29.735Z,56.25
2018-04-08T01:45:57.133Z,56.57
2018-04-08T01:48:24.535Z,56.49
2018-04-08T01:50:51.990Z,56.36
2018-04-08T01:53:19.384Z,56.64
2018-04-08T01:55:46.856Z,56.60
2018-04-08T01:58:17.443Z,56.49
2018-04-08T02:00:44.878Z,56.35
2018-04-08T02:03:12.299Z,56.38
2018-04-08T02:05:39.752Z,56.26
2018-04-08T02:08:07.196Z,56.32
2018-04-08T02:10:34.629Z,56.39
2018-04-08T02:13:02.274Z,56.80
2018-04-08T02:15:29.684Z,57.17
2018-04-08T02:17:57.080Z,57.47
2018-04-08T02:20:24.517Z,57.87
2018-04-08T02:22:55.062Z,58.19
2018-04-08T02:25:22.488Z,58.15
2018-04-08T02:27:49.912Z,58.04
2018-04-08T02:30:17.320Z,58.15
2018-04-08T02:32:44.756Z,58.33
2018-04-08T02:35:12.171Z,58.81
2018-04-08T02:37:39.627Z,59.18
2018-04-08T02:40:07.066Z,59.25
2018-04-08T02:42:35.138Z,59.30
2018-04-08T02:45:02.558Z,59.06
2018-04-08T02:47:30.031Z,58.89
2018-04-08T02:49:57.416Z,58.78
2018-04-08T02:52:24.870Z,58.79
2018-04-08T02:54:52.356Z,58.65
2018-04-08T02:57:19.769Z,58.56
2018-04-08T02:59:47.410Z,58.38
2018-04-08T03:02:14.792Z,58.21
2018-04-08T03:04:42.252Z,58.43
2018-04-08T03:07:09.726Z,58.33
2018-04-08T03:09:37.194Z,58.35
2018-04-08T03:12:04.661Z,58.72
2018-04-08T03:14:32.189Z,58.80
2018-04-08T03:16:59.630Z,58.84
2018-04-08T03:19:27.044Z,58.75
2018-04-08T03:21:54.586Z,58.82
2018-04-08T03:24:22.030Z,58.95
2018-04-08T03:26:49.490Z,59.12
2018-04-08T03:29:19.839Z,59.33
2018-04-08T03:31:47.320Z,59.51
2018-04-08T03:34:14.947Z,59.96
2018-04-08T03:36:42.381Z,59.98
2018-04-08T03:39:09.838Z,59.86
2018-04-08T03:41:37.278Z,59.78
2018-04-08T03:44:04.719Z,59.94
2018-04-08T03:46:32.197Z,60.08
2018-04-08T03:48:59.684Z,60.25
2018-04-08T03:51:30.238Z,60.34
2018-04-08T03:53:57.671Z,60.82
2018-04-08T03:56:25.087Z,61.35
2018-04-08T03:58:52.526Z,61.64
2018-04-08T04:01:19.998Z,61.84
2018-04-08T04:03:47.414Z,62.25
2018-04-08T04:06:14.832Z,62.53
2018-04-08T04:08:42.553Z,62.55
2018-04-08T04:11:09.985Z,62.58
2018-04-08T04:13:37.414Z,62.73
2018-04-08T04:16:04.843Z,62.88
2018-04-08T04:18:44.047Z,63.02
2018-04-08T04:21:23.093Z,62.71
2018-04-08T04:24:02.883Z,62.64
2018-04-08T04:26:31.116Z,62.61
2018-04-08T04:28:58.580Z,62.41
2018-04-08T04:31:26.013Z,62.37
2018-04-08T04:33:53.468Z,62.54
2018-04-08T04:36:20.905Z,62.33
2018-04-08T04:38:48.345Z,62.15
2018-04-08T04:41:15.767Z,62.20
2018-04-08T04:43:43.349Z,61.99
2018-04-08T04:46:10.744Z,62.09
2018-04-08T04:48:38.191Z,62.51
2018-04-08T04:51:05.653Z,62.81
2018-04-08T04:53:33.119Z,63.01
2018-04-08T04:56:00.561Z,63.21
2018-04-08T04:58:28.029Z,63.12
2018-04-08T05:00:55.493Z,63.10
2018-04-08T05:03:23.104Z,63.40
2018-04-08T05:05:50.858Z,63.51
2018-04-08T05:08:18.335Z,63.32
2018-04-08T05:10:45.760Z,63.27
2018-04-08T05:13:13.199Z,63.38
2018-04-08T05:15:40.585Z,63.36
2018-04-08T05:18:07.988Z,63.37
2018-04-08T05:20:35.530Z,63.12
2018-04-08T05:23:06.159Z,62.92
2018-04-08T05:25:33.649Z,62.71
2018-04-08T05:28:01.088Z,62.68
2018-04-08T05:30:28.547Z,62.42
2018-04-08T05:32:56.050Z,62.14
2018-04-08T05:35:23.430Z,61.96
2018-04-08T05:37:50.832Z,61.80
2018-04-08T05:40:21.422Z,61.70
2018-04-08T05:42:48.858Z,61.51
2018-04-08T05:45:16.318Z,61.74
2018-04-08T05:47:43.773Z,62.24
2018-04-08T05:50:11.332Z,62.20
2018-04-08T05:52:38.783Z,61.77
2018-04-08T05:55:06.197Z,61.64
2018-04-08T05:57:36.858Z,61.24
2018-04-08T06:00:04.334Z,60.65
2018-04-08T06:02:31.750Z,60.14
2018-04-08T06:04:59.176Z,59.31
2018-04-08T06:07:26.695Z,58.64
2018-04-08T06:09:54.194Z,57.73
2018-04-08T06:12:21.603Z,56.98
2018-04-08T06:14:49.071Z,56.62
2018-04-08T06:17:16.786Z,56.51
2018-04-08T06:19:44.224Z,55.92
2018-04-08T06:22:11.685Z,55.13
2018-04-08T06:24:39.096Z,54.88
2018-04-08T06:27:06.529Z,54.85
2018-04-08T06:29:36.911Z,54.99
2018-04-08T06:32:04.388Z,53.99
2018-04-08T06:34:31.784Z,52.55
2018-04-08T06:36:59.215Z,51.39
2018-04-08T06:39:26.711Z,50.39
2018-04-08T06:41:54.153Z,50.00
2018-04-08T06:44:21.644Z,49.97
2018-04-08T06:46:49.120Z,50.58
2018-04-08T06:49:16.555Z,50.98
2018-04-08T06:51:47.027Z,50.49
2018-04-08T06:54:14.453Z,49.42
2018-04-08T06:56:41.845Z,48.86
2018-04-08T06:59:09.282Z,50.02
2018-04-08T07:01:36.756Z,51.08
2018-04-08T07:04:04.195Z,51.71
2018-04-08T07:06:31.626Z,52.25
2018-04-08T07:08:59.068Z,53.14
2018-04-08T07:11:26.537Z,53.29
2018-04-08T07:13:53.924Z,52.99
2018-04-08T07:16:21.364Z,52.19
2018-04-08T07:18:48.798Z,51.81
2018-04-08T07:21:16.216Z,52.42
2018-04-08T07:23:46.745Z,51.31
2018-04-08T07:26:14.146Z,50.13
2018-04-08T07:28:41.588Z,49.51
2018-04-08T07:31:09.034Z,48.95
2018-04-08T07:33:36.482Z,48.24
2018-04-08T07:36:03.987Z,47.74
2018-04-08T07:38:31.384Z,47.22
2018-04-08T07:40:58.880Z,46.85
2018-04-08T07:43:26.367Z,46.03
2018-04-08T07:45:53.774Z,45.17
2018-04-08T07:48:21.474Z,44.86
2018-04-08T07:50:49.019Z,45.10
2018-04-08T07:53:16.436Z,45.00
2018-04-08T07:55:43.883Z,45.04
2018-04-08T07:58:11.313Z,45.43
2018-04-08T08:00:38.704Z,46.22
2018-04-08T08:03:06.198Z,47.10
2018-04-08T08:05:33.605Z,47.29
2018-04-08T08:08:01.082Z,46.87
2018-04-08T08:10:28.550Z,47.49
2018-04-08T08:12:55.966Z,47.91
2018-04-08T08:15:23.407Z,47.72
2018-04-08T08:17:50.816Z,48.02
2018-04-08T08:20:18.286Z,46.36
2018-04-08T08:22:45.708Z,46.19
2018-04-08T08:25:16.393Z,46.67
2018-04-08T08:27:44.286Z,46.66
2018-04-08T08:30:11.713Z,46.48
2018-04-08T08:32:39.605Z,45.98
2018-04-08T08:35:06.994Z,45.44
2018-04-08T08:37:34.473Z,45.48
2018-04-08T08:40:01.965Z,44.08
2018-04-08T08:42:29.411Z,43.60
2018-04-08T08:44:56.834Z,43.37
2018-04-08T08:47:24.279Z,43.06
2018-04-08T08:49:51.714Z,42.56
2018-04-08T08:52:19.153Z,42.11
2018-04-08T08:54:46.603Z,42.19
2018-04-08T08:57:14.026Z,42.17
2018-04-08T08:59:41.638Z,42.25
2018-04-08T09:02:12.355Z,41.87
2018-04-08T09:04:39.744Z,41.51
2018-04-08T09:07:07.187Z,41.24
2018-04-08T09:09:34.799Z,41.03
2018-04-08T09:12:02.318Z,40.50
2018-04-08T09:14:29.752Z,40.40
2018-04-08T09:16:57.232Z,40.39
2018-04-08T09:19:27.401Z,39.83
2018-04-08T09:24:57.032Z,34.51
2018-04-08T09:27:27.753Z,33.18
2018-04-08T09:29:55.233Z,33.07
2018-04-08T09:32:22.666Z,32.76
2018-04-08T09:34:50.677Z,32.40
2018-04-08T09:37:18.329Z,33.32
2018-04-08T09:39:45.765Z,34.39
2018-04-08T09:42:13.233Z,34.57
2018-04-08T09:44:40.722Z,34.43
2018-04-08T09:47:08.156Z,34.68
2018-04-08T09:49:35.552Z,34.36
2018-04-08T09:52:06.189Z,34.16
2018-04-08T09:54:33.582Z,34.24
2018-04-08T09:57:01.587Z,33.29
2018-04-08T09:59:29.057Z,32.70
2018-04-08T10:02:12.004Z,32.42
2018-04-08T10:04:39.499Z,32.18
2018-04-08T10:07:20.146Z,31.98
2018-04-08T10:09:47.650Z,31.30
2018-04-08T10:12:15.119Z,30.98
2018-04-08T10:14:42.524Z,30.52
2018-04-08T10:17:10.097Z,30.04
2018-04-08T10:19:37.543Z,30.03
2018-04-08T10:22:05.064Z,29.63
2018-04-08T10:24:32.472Z,28.62
2018-04-08T10:26:59.870Z,28.09
2018-04-08T10:29:27.300Z,27.57
2018-04-08T10:31:54.879Z,27.59
2018-04-08T10:34:22.328Z,27.75
2018-04-08T10:36:49.799Z,27.73
2018-04-08T10:39:17.834Z,27.72
2018-04-08T10:41:45.415Z,28.17
2018-04-08T10:44:12.903Z,27.87
2018-04-08T10:46:40.728Z,28.02
2018-04-08T10:49:08.156Z,28.89
2018-04-08T10:51:35.647Z,28.41
2018-04-08T10:54:03.341Z,28.37
2018-04-08T10:56:34.144Z,28.83
2018-04-08T10:59:01.548Z,29.22
2018-04-08T11:01:29.037Z,29.36
2018-04-08T11:03:56.425Z,29.62
2018-04-08T11:06:23.892Z,29.65
2018-04-08T11:08:51.358Z,29.19
2018-04-08T11:11:18.762Z,28.73
2018-04-08T11:13:46.518Z,28.12
2018-04-08T11:16:13.944Z,27.93
2018-04-08T11:18:41.407Z,28.34
2018-04-08T11:21:08.841Z,28.09
2018-04-08T11:23:36.275Z,27.77
2018-04-08T11:26:03.926Z,27.79
2018-04-08T11:28:31.423Z,28.23
2018-04-08T11:30:58.845Z,28.55
2018-04-08T11:33:26.266Z,28.87
2018-04-08T11:35:53.740Z,29.03
2018-04-08T11:38:21.199Z,28.84
2018-04-08T11:40:48.687Z,28.36
2018-04-08T11:43:16.227Z,28.49
2018-04-08T11:45:43.718Z,28.53
2018-04-08T11:48:12.111Z,28.61
2018-04-08T11:50:39.500Z,28.81
2018-04-08T11:53:07.228Z,29.02
2018-04-08T11:55:35.006Z,28.90
2018-04-08T11:58:02.432Z,28.83
2018-04-08T12:00:29.877Z,28.75
2018-04-08T12:02:57.293Z,28.32
2018-04-08T12:05:24.773Z,27.58
2018-04-08T12:07:52.260Z,27.62
2018-04-08T12:10:19.736Z,27.94
2018-04-08T12:12:47.206Z,27.72
2018-04-08T12:15:14.681Z,27.61
2018-04-08T12:17:42.140Z,27.48
2018-04-08T12:20:09.579Z,27.58
2018-04-08T12:22:37.044Z,27.28
2018-04-08T12:25:04.447Z,27.35
2018-04-08T12:27:31.889Z,27.62
2018-04-08T12:29:59.398Z,28.54
2018-04-08T12:32:26.883Z,28.22
2018-04-08T12:34:54.317Z,27.84
2018-04-08T12:37:21.798Z,28.12
2018-04-08T12:39:49.221Z,28.37
2018-04-08T12:42:16.690Z,28.41
2018-04-08T12:44:44.192Z,28.47
2018-04-08T12:47:12.108Z,28.42
2018-04-08T12:49:39.584Z,28.12
2018-04-08T12:52:07.032Z,27.97
2018-04-08T12:54:34.457Z,28.22
2018-04-08T12:57:01.939Z,28.51
2018-04-08T12:59:29.420Z,28.82
2018-04-08T13:01:56.908Z,28.70
2018-04-08T13:04:24.376Z,28.91
2018-04-08T13:06:51.831Z,28.92
2018-04-08T13:09:19.261Z,28.73
2018-04-08T13:11:46.685Z,28.86
2018-04-08T13:14:14.209Z,29.07
2018-04-08T13:16:41.631Z,29.06
2018-04-08T13:19:09.046Z,29.51
2018-04-08T13:21:36.444Z,29.69
2018-04-08T13:24:03.893Z,30.38
2018-04-08T13:26:31.300Z,30.47
2018-04-08T13:28:58.733Z,30.39
2018-04-08T13:31:26.136Z,29.85
2018-04-08T13:33:54.780Z,29.70
2018-04-08T13:36:22.250Z,29.89
2018-04-08T13:38:49.662Z,29.83
2018-04-08T13:41:17.124Z,29.65
2018-04-08T13:43:44.608Z,29.69
2018-04-08T13:46:12.050Z,30.22
2018-04-08T13:48:39.451Z,30.23
2018-04-08T13:51:06.914Z,30.31
2018-04-08T13:53:34.354Z,30.33
2018-04-08T13:56:01.807Z,30.48
2018-04-08T13:58:29.336Z,30.71
2018-04-08T14:00:56.761Z,31.40
2018-04-08T14:03:24.249Z,32.68
2018-04-08T14:05:51.710Z,33.51
2018-04-08T14:08:19.186Z,34.01
2018-04-08T14:10:46.638Z,34.68
2018-04-08T14:13:14.081Z,35.39
2018-04-08T14:15:41.471Z,36.14
2018-04-08T14:18:08.928Z,36.14
2018-04-08T14:20:36.314Z,36.31
2018-04-08T14:23:03.708Z,36.62
2018-04-08T14:25:31.174Z,37.06
2018-04-08T14:27:58.650Z,37.40
2018-04-08T14:30:26.077Z,37.16
2018-04-08T14:32:53.543Z,37.10
2018-04-08T14:35:20.984Z,37.18
2018-04-08T14:37:48.453Z,37.22
2018-04-08T14:40:15.849Z,37.15
2018-04-08T14:42:43.367Z,37.20
2018-04-08T14:45:10.850Z,37.39
2018-04-08T14:47:38.351Z,37.44
2018-04-08T14:50:05.814Z,37.54
2018-04-08T14:52:33.255Z,37.71
2018-04-08T14:55:00.730Z,37.81
2018-04-08T14:57:28.157Z,37.87
2018-04-08T14:59:55.638Z,38.13
2018-04-08T15:02:23.085Z,38.29
2018-04-08T15:04:50.489Z,38.58
2018-04-08T15:07:17.886Z,38.70
2018-04-08T15:09:45.341Z,38.94
2018-04-08T15:12:12.795Z,39.09
2018-04-08T15:14:40.193Z,39.34
2018-04-08T15:17:07.663Z,39.51
2018-04-08T15:19:35.164Z,40.10
2018-04-08T15:22:02.614Z,40.13
2018-04-08T15:24:30.008Z,40.21
2018-04-08T15:26:57.488Z,40.50
2018-04-08T15:29:24.925Z,40.50
2018-04-08T15:31:52.369Z,40.49
2018-04-08T15:34:19.853Z,40.59
2018-04-08T15:36:47.251Z,40.67
2018-04-08T15:39:14.719Z,40.63
2018-04-08T15:41:42.194Z,40.70
2018-04-08T15:44:09.769Z,41.09
2018-04-08T15:46:37.406Z,41.01
2018-04-08T15:49:04.908Z,40.92
2018-04-08T15:51:32.392Z,41.10
2018-04-08T15:54:00.662Z,41.34
2018-04-08T15:56:28.063Z,41.37
2018-04-08T15:58:55.534Z,41.38
2018-04-08T16:01:22.959Z,41.15
2018-04-08T16:03:50.487Z,41.06
2018-04-08T16:06:17.910Z,41.42
2018-04-08T16:08:45.505Z,41.32
2018-04-08T16:11:12.938Z,41.27
2018-04-08T16:13:40.389Z,41.83
2018-04-08T16:16:07.855Z,42.07
2018-04-08T16:18:35.286Z,41.69
2018-04-08T16:21:02.763Z,41.31
2018-04-08T16:23:30.172Z,41.31
2018-04-08T16:25:57.642Z,41.45
2018-04-08T16:28:25.065Z,41.11
2018-04-08T16:30:52.545Z,40.90
2018-04-08T16:33:20.029Z,40.51
2018-04-08T16:35:47.455Z,40.14
2018-04-08T16:38:15.002Z,40.28
2018-04-08T16:40:42.468Z,40.11
2018-04-08T16:43:09.958Z,39.85
2018-04-08T16:45:37.476Z,39.68
2018-04-08T16:48:04.900Z,39.61
2018-04-08T16:50:32.379Z,40.05
2018-04-08T16:52:59.851Z,40.46
2018-04-08T16:55:27.460Z,40.61
2018-04-08T16:57:54.936Z,40.74
2018-04-08T17:00:22.374Z,40.72
2018-04-08T17:02:49.797Z,40.59
2018-04-08T17:05:17.216Z,40.31
2018-04-08T17:07:44.657Z,39.88
2018-04-08T17:10:12.087Z,40.50
2018-04-08T17:12:39.902Z,41.32
2018-04-08T17:15:07.319Z,41.68
2018-04-08T17:17:34.755Z,41.95
2018-04-08T17:20:02.249Z,42.13
2018-04-08T17:22:29.612Z,42.52
2018-04-08T17:24:57.104Z,42.82
2018-04-08T17:27:24.570Z,43.08
2018-04-08T17:29:51.980Z,43.39
2018-04-08T17:32:19.380Z,43.35
2018-04-08T17:34:47.156Z,43.49
2018-04-08T17:37:14.628Z,43.63
2018-04-08T17:39:42.064Z,43.75
2018-04-08T17:42:09.450Z,43.87
2018-04-08T17:44:36.905Z,44.14
2018-04-08T17:47:04.388Z,44.49
2018-04-08T17:49:31.781Z,45.09
2018-04-08T17:51:59.254Z,45.65
2018-04-08T17:54:26.700Z,45.91
2018-04-08T17:56:54.150Z,45.98
2018-04-08T17:59:21.626Z,46.10
2018-04-08T18:01:49.040Z,46.40
2018-04-08T18:04:16.517Z,46.75
2018-04-08T18:06:43.936Z,47.08
2018-04-08T18:09:11.338Z,47.42
2018-04-08T18:11:38.803Z,47.99
2018-04-08T18:14:06.220Z,48.27
2018-04-08T18:16:34.327Z,48.46
2018-04-08T18:19:01.786Z,48.67
2018-04-08T18:21:29.235Z,49.16
2018-04-08T18:23:56.706Z,49.43
2018-04-08T18:26:24.140Z,49.52
2018-04-08T18:28:51.605Z,49.64
2018-04-08T18:31:19.033Z,49.74
2018-04-08T18:33:46.477Z,50.52
2018-04-08T18:36:13.956Z,50.67
2018-04-08T18:38:41.448Z,50.92
2018-04-08T18:41:08.885Z,51.16
2018-04-08T18:43:36.361Z,51.60
2018-04-08T18:46:03.832Z,52.02
2018-04-08T18:48:31.288Z,52.13
2018-04-08T18:50:58.718Z,52.03
2018-04-08T18:53:26.295Z,51.85
2018-04-08T18:55:53.741Z,51.84
2018-04-08T18:58:21.631Z,51.65
2018-04-08T19:00:49.070Z,51.79
2018-04-08T19:03:16.515Z,51.85
2018-04-08T19:05:43.978Z,52.17
2018-04-08T19:08:11.431Z,52.40
2018-04-08T19:10:38.871Z,52.67
2018-04-08T19:13:06.278Z,53.16
2018-04-08T19:15:33.854Z,53.22
2018-04-08T19:18:03.396Z,53.38
2018-04-08T19:20:30.852Z,53.21
2018-04-08T19:22:58.317Z,53.05
2018-04-08T19:25:25.787Z,52.96
2018-04-08T19:27:53.259Z,53.12
2018-04-08T19:30:21.150Z,53.25
2018-04-08T19:32:49.106Z,53.43
2018-04-08T19:35:16.542Z,53.60
2018-04-08T19:37:44.187Z,53.60
2018-04-08T19:40:11.866Z,53.77
2018-04-08T19:42:39.319Z,53.88
2018-04-08T19:45:06.738Z,53.81
2018-04-08T19:47:34.962Z,53.77
2018-04-08T19:50:02.597Z,53.74
2018-04-08T19:52:30.067Z,53.62
2018-04-08T19:54:57.537Z,53.50
2018-04-08T19:57:24.967Z,53.39
2018-04-08T19:59:52.385Z,53.52
2018-04-08T20:02:19.858Z,54.19
2018-04-08T20:04:47.337Z,54.91
2018-04-08T20:07:14.837Z,55.30
2018-04-08T20:09:42.240Z,55.61
2018-04-08T20:12:09.666Z,55.66
2018-04-08T20:14:37.113Z,55.41
2018-04-08T20:17:04.503Z,55.45
2018-04-08T20:19:31.952Z,55.17
2018-04-08T20:21:59.419Z,55.24
2018-04-08T20:24:26.821Z,55.45
2018-04-08T20:26:54.220Z,55.68
2018-04-08T20:29:21.637Z,55.78
2018-04-08T20:31:49.043Z,56.00
2018-04-08T20:34:16.503Z,56.09
2018-04-08T20:36:44.097Z,56.48
2018-04-08T20:39:11.581Z,56.86
2018-04-08T20:41:39.017Z,57.25
2018-04-08T20:44:06.479Z,56.86
2018-04-08T20:46:33.942Z,56.63
2018-04-08T20:49:01.379Z,56.63
2018-04-08T20:51:28.824Z,56.64
2018-04-08T20:53:56.254Z,56.71
2018-04-08T20:56:23.733Z,57.02
2018-04-08T20:58:51.172Z,57.11
2018-04-08T21:01:18.642Z,57.13
2018-04-08T21:03:46.076Z,56.90
2018-04-08T21:06:13.528Z,56.75
2018-04-08T21:08:40.952Z,56.70
2018-04-08T21:11:08.380Z,56.59
2018-04-08T21:13:36.033Z,56.77
2018-04-08T21:16:03.465Z,56.79
2018-04-08T21:18:30.995Z,56.84
2018-04-08T21:20:58.784Z,56.81
2018-04-08T21:23:26.244Z,56.87
2018-04-08T21:25:53.877Z,56.70
2018-04-08T21:28:21.377Z,57.06
2018-04-08T21:30:48.816Z,57.14
2018-04-08T21:33:16.267Z,57.22
2018-04-08T21:35:43.668Z,57.18
2018-04-08T21:38:11.134Z,57.12
2018-04-08T21:40:38.565Z,57.53
2018-04-08T21:43:06.038Z,57.77
2018-04-08T21:45:33.459Z,57.90
2018-04-08T21:48:00.926Z,57.92
2018-04-08T21:50:28.340Z,58.08
2018-04-08T21:52:55.783Z,58.18
2018-04-08T21:55:23.345Z,58.01
2018-04-08T21:57:50.777Z,57.85
2018-04-08T22:00:18.244Z,57.70
2018-04-08T22:02:45.708Z,57.74
2018-04-08T22:05:13.875Z,57.69
2018-04-08T22:07:41.268Z,57.69
2018-04-08T22:10:09.276Z,57.72
2018-04-08T22:12:36.750Z,57.55
2018-04-08T22:15:04.140Z,57.53
2018-04-08T22:17:31.562Z,57.48
2018-04-08T22:19:59.029Z,57.59
2018-04-08T22:22:26.424Z,57.53
2018-04-08T22:24:53.861Z,57.50
2018-04-08T22:27:21.335Z,57.25
2018-04-08T22:29:49.177Z,57.09
2018-04-08T22:32:16.619Z,57.31
2018-04-08T22:34:44.063Z,57.08
2018-04-08T22:37:11.460Z,56.98
2018-04-08T22:39:38.943Z,56.70
2018-04-08T22:42:06.881Z,56.68
2018-04-08T22:44:34.272Z,56.70
2018-04-08T22:47:01.713Z,56.44
2018-04-08T22:49:29.128Z,56.44
2018-04-08T22:51:56.556Z,56.22
2018-04-08T22:54:24.573Z,55.89
2018-04-08T22:56:51.999Z,55.78
2018-04-08T22:59:20.122Z,56.26
2018-04-08T23:01:47.549Z,56.76
2018-04-08T23:04:14.937Z,56.72
2018-04-08T23:06:42.475Z,56.59
2018-04-08T23:09:09.958Z,56.23
2018-04-08T23:11:37.403Z,55.81
2018-04-08T23:14:04.877Z,55.51
2018-04-08T23:16:32.340Z,55.49
2018-04-08T23:19:00.313Z,55.39
2018-04-08T23:21:27.725Z,55.38
2018-04-08T23:23:55.136Z,55.52
2018-04-08T23:26:22.586Z,55.63
2018-04-08T23:28:49.972Z,55.77
2018-04-08T23:31:17.550Z,56.08
2018-04-08T23:33:44.979Z,56.40
2018-04-08T23:36:12.391Z,56.56
2018-04-08T23:38:39.833Z,56.80
2018-04-08T23:41:07.293Z,56.93
2018-04-08T23:43:34.696Z,57.05
2018-04-08T23:46:02.096Z,57.24
2018-04-08T23:48:29.529Z,57.02
2018-04-08T23:50:56.949Z,56.95
2018-04-08T23:53:24.416Z,56.94
2018-04-08T23:55:51.841Z,56.88
2018-04-08T23:58:19.267Z,57.13
